Time;durP1;ratioP1;P1;durP2;ratioP2;P2;SDS_P1;SDS_P2;PMS_P1;PMS_P2;Temp;Humidity;BMP_temperature;BMP_pressure;BME280_temperature;BME280_humidity;BME280_pressure;Samples;Min_cycle;Max_cycle;Signal;HPM_P1;HPM_P2
2021/06/24 00:00:37;;;;;;;12.57;5.70;;;13.60;99.90;;;;;;5073859;28;20182;-64
2021/06/24 00:03:04;;;;;;;22.35;5.60;;;13.60;99.90;;;;;;5073178;28;20206;-65
2021/06/24 00:05:30;;;;;;;15.15;5.63;;;13.60;99.90;;;;;;5074948;28;20618;-64
2021/06/24 00:07:56;;;;;;;19.85;7.10;;;13.50;99.90;;;;;;5055794;28;20193;-65
2021/06/24 00:10:23;;;;;;;19.30;5.30;;;13.50;99.90;;;;;;5074338;28;20174;-65
2021/06/24 00:12:49;;;;;;;16.27;6.65;;;13.40;99.90;;;;;;5074548;28;20181;-65
2021/06/24 00:15:15;;;;;;;22.58;6.00;;;13.40;99.90;;;;;;5073595;28;20638;-65
2021/06/24 00:17:42;;;;;;;18.58;5.43;;;13.40;99.90;;;;;;5074577;28;20638;-65
2021/06/24 00:20:08;;;;;;;19.20;5.80;;;13.30;99.90;;;;;;5073405;28;20174;-65
2021/06/24 00:22:34;;;;;;;15.45;4.50;;;13.30;99.90;;;;;;5073036;28;20551;-65
2021/06/24 00:25:00;;;;;;;21.45;5.90;;;13.30;99.90;;;;;;5073877;28;20178;-65
2021/06/24 00:27:26;;;;;;;19.98;6.13;;;13.30;99.90;;;;;;5073057;28;20193;-64
2021/06/24 00:29:52;;;;;;;11.98;4.82;;;13.20;99.90;;;;;;5073110;28;20174;-64
2021/06/24 00:32:19;;;;;;;15.57;5.07;;;13.20;99.90;;;;;;5073589;28;20197;-66
2021/06/24 00:34:45;;;;;;;15.63;5.78;;;13.10;99.90;;;;;;5073681;28;20178;-66
2021/06/24 00:37:11;;;;;;;18.73;5.72;;;13.00;99.90;;;;;;5071993;28;20218;-65
2021/06/24 00:39:37;;;;;;;15.57;5.82;;;13.00;99.90;;;;;;5072854;28;20185;-65
2021/06/24 00:42:03;;;;;;;16.63;5.20;;;13.00;99.90;;;;;;5073327;28;20214;-66
2021/06/24 00:44:29;;;;;;;13.30;5.50;;;12.90;99.90;;;;;;5072735;28;20174;-66
2021/06/24 00:46:55;;;;;;;14.93;5.82;;;12.90;99.90;;;;;;5073728;28;20174;-65
2021/06/24 00:49:22;;;;;;;14.48;5.38;;;12.90;99.90;;;;;;5073393;28;20175;-66
2021/06/24 00:51:48;;;;;;;15.70;5.68;;;12.80;99.90;;;;;;5073805;28;20525;-66
2021/06/24 00:54:14;;;;;;;18.80;6.35;;;12.80;99.90;;;;;;5072598;28;20178;-66
2021/06/24 00:56:40;;;;;;;18.90;5.97;;;12.80;99.90;;;;;;5071956;28;20174;-65
2021/06/24 00:59:06;;;;;;;13.68;5.32;;;12.70;99.90;;;;;;5070971;28;20178;-66
2021/06/24 01:01:32;;;;;;;22.00;6.32;;;12.70;99.90;;;;;;5072325;28;20170;-66
2021/06/24 01:03:59;;;;;;;14.02;5.80;;;12.70;99.90;;;;;;5072957;28;20193;-66
2021/06/24 01:06:25;;;;;;;18.45;5.05;;;12.70;99.90;;;;;;5073123;28;20615;-66
2021/06/24 01:08:51;;;;;;;15.70;6.18;;;12.70;99.90;;;;;;5072414;28;20190;-64
2021/06/24 01:11:17;;;;;;;16.92;4.90;;;12.70;99.90;;;;;;5073137;28;20668;-66
2021/06/24 01:13:44;;;;;;;17.25;5.80;;;12.70;99.90;;;;;;5071733;28;20189;-66
2021/06/24 01:16:10;;;;;;;14.02;5.60;;;12.60;99.90;;;;;;5055087;28;20166;-66
2021/06/24 01:18:37;;;;;;;16.20;5.53;;;12.60;99.90;;;;;;5072982;28;20178;-65
2021/06/24 01:21:03;;;;;;;21.67;6.72;;;12.60;99.90;;;;;;5072045;28;20193;-66
2021/06/24 01:23:35;;;;;;;13.63;6.28;;;12.60;99.90;;;;;;5072959;28;20198;-65
2021/06/24 01:26:01;;;;;;;11.30;5.28;;;12.60;99.90;;;;;;5072665;28;20665;-64
2021/06/24 01:28:27;;;;;;;17.13;5.15;;;12.60;99.90;;;;;;5073036;28;20178;-65
2021/06/24 01:30:53;;;;;;;18.27;5.55;;;12.60;99.90;;;;;;5072845;28;20181;-65
2021/06/24 01:33:19;;;;;;;14.93;5.63;;;12.60;99.90;;;;;;5072448;28;20189;-65
2021/06/24 01:35:45;;;;;;;13.48;5.65;;;12.60;99.90;;;;;;5070545;28;20201;-64
2021/06/24 01:38:12;;;;;;;18.52;5.65;;;12.50;99.90;;;;;;5071991;28;20197;-65
2021/06/24 01:40:38;;;;;;;15.45;5.38;;;12.50;99.90;;;;;;5072399;28;20174;-65
2021/06/24 01:43:04;;;;;;;14.32;5.70;;;12.40;99.90;;;;;;5071120;28;20213;-65
2021/06/24 01:45:31;;;;;;;17.40;5.68;;;12.40;99.90;;;;;;5072991;28;20165;-65
2021/06/24 01:47:57;;;;;;;14.43;5.35;;;12.50;99.90;;;;;;5053164;28;20201;-65
2021/06/24 01:50:23;;;;;;;16.30;5.97;;;12.40;99.90;;;;;;5069324;28;20185;-66
2021/06/24 01:52:50;;;;;;;21.27;5.50;;;12.40;99.90;;;;;;5071974;28;20186;-67
2021/06/24 01:55:16;;;;;;;17.35;5.53;;;12.40;99.90;;;;;;5071284;28;20166;-66
2021/06/24 01:57:43;;;;;;;21.58;6.25;;;12.40;99.90;;;;;;5071552;28;20185;-65
2021/06/24 02:00:10;;;;;;;20.67;6.43;;;12.40;99.90;;;;;;5070841;28;20181;-66
2021/06/24 02:02:36;;;;;;;13.00;5.80;;;12.40;99.90;;;;;;5072535;28;20209;-67
2021/06/24 02:05:04;;;;;;;17.65;5.97;;;12.30;99.90;;;;;;5071553;28;20182;-66
2021/06/24 02:07:30;;;;;;;14.93;6.13;;;12.30;99.90;;;;;;5054269;28;20181;-66
2021/06/24 02:09:56;;;;;;;18.45;5.78;;;12.30;99.90;;;;;;5070690;28;20174;-68
2021/06/24 02:12:22;;;;;;;20.80;6.22;;;12.30;99.90;;;;;;5072090;28;20192;-68
2021/06/24 02:14:48;;;;;;;18.98;6.10;;;12.30;99.90;;;;;;5071331;28;20537;-67
2021/06/24 02:17:15;;;;;;;10.15;4.55;;;12.30;99.90;;;;;;5072252;28;20169;-66
2021/06/24 02:19:41;;;;;;;15.25;5.90;;;12.30;99.90;;;;;;5072255;28;20657;-63
2021/06/24 02:22:07;;;;;;;15.82;6.53;;;12.30;99.90;;;;;;5071921;28;20209;-67
2021/06/24 02:24:33;;;;;;;23.33;6.53;;;12.30;99.90;;;;;;5071266;28;20186;-67
2021/06/24 02:26:59;;;;;;;14.00;6.28;;;12.30;99.90;;;;;;5072185;28;20618;-66
2021/06/24 02:29:25;;;;;;;14.75;5.93;;;12.30;99.90;;;;;;5071951;28;20182;-66
2021/06/24 02:31:51;;;;;;;15.30;5.90;;;12.30;99.90;;;;;;5071222;28;20639;-66
2021/06/24 02:34:17;;;;;;;17.90;5.85;;;12.20;99.90;;;;;;5053169;28;20196;-65
2021/06/24 02:36:43;;;;;;;15.02;6.30;;;12.20;99.90;;;;;;5070936;28;20221;-64
2021/06/24 02:39:09;;;;;;;23.25;6.47;;;12.20;99.90;;;;;;5069231;28;20187;-66
2021/06/24 02:41:36;;;;;;;12.48;5.55;;;12.20;99.90;;;;;;5071231;28;20185;-66
2021/06/24 02:44:03;;;;;;;20.25;6.70;;;12.20;99.90;;;;;;5071615;28;20213;-65
2021/06/24 02:46:29;;;;;;;21.23;6.38;;;12.10;99.90;;;;;;5072349;28;20178;-65
2021/06/24 02:48:55;;;;;;;12.90;6.00;;;12.10;99.90;;;;;;5071555;28;20661;-65
2021/06/24 02:51:21;;;;;;;20.27;6.13;;;12.10;99.90;;;;;;5075169;28;20552;-66
2021/06/24 02:53:47;;;;;;;17.92;6.63;;;12.10;99.90;;;;;;5075143;28;20186;-66
2021/06/24 02:56:13;;;;;;;19.40;6.47;;;12.10;99.90;;;;;;5075817;28;20178;-66
2021/06/24 02:58:40;;;;;;;16.48;6.75;;;12.10;99.90;;;;;;5075464;28;20634;-65
2021/06/24 03:01:08;;;;;;;17.92;6.43;;;12.10;99.90;;;;;;5074769;28;20201;-64
2021/06/24 03:03:34;;;;;;;19.70;7.25;;;12.10;99.90;;;;;;5075749;28;20201;-64
2021/06/24 03:06:00;;;;;;;18.63;7.35;;;12.10;99.90;;;;;;5074725;28;20178;-66
2021/06/24 03:08:26;;;;;;;13.65;6.18;;;12.20;99.90;;;;;;5074385;28;20189;-65
2021/06/24 03:10:52;;;;;;;15.15;5.43;;;12.20;99.90;;;;;;5075338;28;20178;-66
2021/06/24 03:13:18;;;;;;;15.00;5.90;;;12.20;99.90;;;;;;5074635;28;20178;-66
2021/06/24 03:15:44;;;;;;;13.98;5.70;;;12.20;99.90;;;;;;5074829;28;20185;-66
2021/06/24 03:18:10;;;;;;;14.43;5.95;;;12.10;99.90;;;;;;5075221;28;20193;-65
2021/06/24 03:20:37;;;;;;;16.10;6.90;;;12.10;99.90;;;;;;5074614;28;20173;-66
2021/06/24 03:23:03;;;;;;;14.90;6.18;;;12.10;99.90;;;;;;5074930;28;20206;-65
2021/06/24 03:25:29;;;;;;;13.18;5.53;;;12.10;99.90;;;;;;5075065;28;20166;-66
2021/06/24 03:27:55;;;;;;;21.63;7.63;;;12.10;99.90;;;;;;5039404;28;20185;-66
2021/06/24 03:30:22;;;;;;;17.10;5.50;;;12.20;99.90;;;;;;5074165;28;20515;-66
2021/06/24 03:32:48;;;;;;;22.95;7.68;;;12.20;99.90;;;;;;5057346;28;20185;-66
2021/06/24 03:35:14;;;;;;;17.35;6.10;;;12.20;99.90;;;;;;5074595;28;20186;-67
2021/06/24 03:37:40;;;;;;;15.63;5.57;;;12.30;99.90;;;;;;5075198;28;20244;-66
2021/06/24 03:40:07;;;;;;;14.93;5.63;;;12.30;99.90;;;;;;5074009;28;20178;-66
2021/06/24 03:42:33;;;;;;;10.80;4.85;;;12.30;99.90;;;;;;5056808;28;20206;-66
2021/06/24 03:45:00;;;;;;;18.45;5.70;;;12.30;99.90;;;;;;5074543;28;20576;-66
2021/06/24 03:47:26;;;;;;;13.63;5.93;;;12.30;99.90;;;;;;5073781;28;20175;-66
2021/06/24 03:49:52;;;;;;;24.27;5.43;;;12.30;99.90;;;;;;5074651;28;20185;-67
2021/06/24 03:52:18;;;;;;;21.10;5.78;;;12.30;99.90;;;;;;5074040;28;20185;-67
2021/06/24 03:54:44;;;;;;;19.02;7.40;;;12.30;99.90;;;;;;5074629;28;20618;-66
2021/06/24 03:57:10;;;;;;;17.55;6.78;;;12.20;99.90;;;;;;5072765;28;20276;-67
2021/06/24 03:59:36;;;;;;;15.50;7.03;;;12.20;99.90;;;;;;5074140;28;20196;-67
2021/06/24 04:02:03;;;;;;;21.08;7.35;;;12.20;99.90;;;;;;5073505;28;20174;-67
2021/06/24 04:04:29;;;;;;;17.10;6.90;;;12.20;99.90;;;;;;5072731;28;20550;-67
2021/06/24 04:06:56;;;;;;;15.52;5.03;;;12.20;99.90;;;;;;5072014;28;20170;-66
2021/06/24 04:09:22;;;;;;;17.88;7.15;;;12.20;99.90;;;;;;5072575;28;20534;-67
2021/06/24 04:11:48;;;;;;;24.17;7.30;;;12.20;99.90;;;;;;5073984;28;20174;-67
2021/06/24 04:14:14;;;;;;;12.50;5.45;;;12.20;99.90;;;;;;5073500;28;20182;-65
2021/06/24 04:16:40;;;;;;;14.15;5.35;;;12.20;99.90;;;;;;5072118;28;20179;-66
2021/06/24 04:19:07;;;;;;;13.27;5.28;;;12.20;99.90;;;;;;5073275;28;20189;-66
2021/06/24 04:21:33;;;;;;;17.73;5.38;;;12.20;99.90;;;;;;5074450;28;20182;-64
2021/06/24 04:23:59;;;;;;;16.38;5.10;;;12.30;99.90;;;;;;5074219;28;20213;-64
2021/06/24 04:26:27;;;;;;;15.63;5.00;;;12.40;99.90;;;;;;5055890;28;20201;-65
2021/06/24 04:28:53;;;;;;;18.95;5.32;;;12.50;99.90;;;;;;5072854;28;20170;-66
2021/06/24 04:31:19;;;;;;;18.05;5.32;;;12.60;99.90;;;;;;5073413;28;20182;-67
2021/06/24 04:33:45;;;;;;;12.38;5.22;;;12.70;99.90;;;;;;5072536;28;20182;-63
2021/06/24 04:36:11;;;;;;;22.30;5.40;;;12.80;99.90;;;;;;5070043;28;20209;-66
2021/06/24 04:38:37;;;;;;;16.77;5.30;;;12.90;99.90;;;;;;5073345;28;20177;-65
2021/06/24 04:41:04;;;;;;;12.90;5.15;;;13.00;99.90;;;;;;5072553;28;20639;-63
2021/06/24 04:43:30;;;;;;;16.77;5.50;;;13.00;99.90;;;;;;5073613;28;20197;-66
2021/06/24 04:45:56;;;;;;;14.98;4.85;;;13.10;99.90;;;;;;5073345;28;20181;-67
2021/06/24 04:48:22;;;;;;;17.83;5.00;;;13.20;99.90;;;;;;5071658;28;20193;-65
2021/06/24 04:50:48;;;;;;;10.32;4.70;;;13.20;99.90;;;;;;5073290;28;20179;-64
2021/06/24 04:53:14;;;;;;;10.45;4.32;;;13.30;99.90;;;;;;5072848;28;20170;-65
2021/06/24 04:55:40;;;;;;;14.50;5.35;;;13.50;99.90;;;;;;5073199;28;20177;-65
2021/06/24 04:58:07;;;;;;;8.23;3.55;;;13.70;99.90;;;;;;5073322;28;20185;-66
2021/06/24 05:00:34;;;;;;;11.32;3.83;;;13.80;99.90;;;;;;5055683;28;20173;-67
2021/06/24 05:03:03;;;;;;;9.38;3.63;;;14.00;99.90;;;;;;5073133;28;20197;-63
2021/06/24 05:05:29;;;;;;;8.43;3.83;;;14.10;99.90;;;;;;5070581;28;20197;-65
2021/06/24 05:07:56;;;;;;;15.55;3.63;;;14.30;99.90;;;;;;5069765;28;20185;-65
2021/06/24 05:10:22;;;;;;;10.23;3.88;;;14.40;99.90;;;;;;5048437;28;20193;-66
2021/06/24 05:12:48;;;;;;;25.50;5.18;;;14.50;99.90;;;;;;5061010;28;20186;-67
2021/06/24 05:15:15;;;;;;;18.67;4.43;;;14.50;99.90;;;;;;5061620;28;20187;-65
2021/06/24 05:17:41;;;;;;;21.27;4.70;;;14.60;99.90;;;;;;5063012;28;20649;-66
2021/06/24 05:20:08;;;;;;;11.82;4.97;;;14.70;99.90;;;;;;5058617;28;20190;-64
2021/06/24 05:22:34;;;;;;;9.50;3.70;;;14.70;99.90;;;;;;5041568;28;20213;-64
2021/06/24 05:25:01;;;;;;;12.88;4.18;;;14.70;99.90;;;;;;5041194;28;20192;-66
2021/06/24 05:27:27;;;;;;;14.05;3.80;;;14.90;99.90;;;;;;5032527;28;20173;-68
2021/06/24 05:29:53;;;;;;;10.63;3.40;;;14.90;99.90;;;;;;5058420;28;20181;-65
2021/06/24 05:32:19;;;;;;;17.00;3.97;;;15.00;99.90;;;;;;5057573;28;20182;-66
2021/06/24 05:34:45;;;;;;;9.30;3.50;;;15.10;99.90;;;;;;5059560;28;20185;-65
2021/06/24 05:37:11;;;;;;;9.63;4.10;;;15.20;99.90;;;;;;5063939;28;20244;-66
2021/06/24 05:39:37;;;;;;;9.10;4.20;;;15.40;99.90;;;;;;5063971;28;20178;-66
2021/06/24 05:42:04;;;;;;;8.68;3.47;;;15.40;99.90;;;;;;5059427;28;20182;-65
2021/06/24 05:44:30;;;;;;;12.63;3.53;;;15.50;99.90;;;;;;5062917;28;20536;-65
2021/06/24 05:46:56;;;;;;;9.30;3.42;;;15.50;99.90;;;;;;5064100;28;20185;-65
2021/06/24 05:49:22;;;;;;;15.85;3.42;;;15.60;99.90;;;;;;5061739;28;20197;-65
2021/06/24 05:51:48;;;;;;;85.32;5.57;;;15.80;99.90;;;;;;5044021;28;20177;-65
2021/06/24 05:54:14;;;;;;;20.35;3.72;;;15.90;99.90;;;;;;5060134;28;20538;-65
2021/06/24 05:56:41;;;;;;;14.65;3.20;;;15.90;99.90;;;;;;5062080;28;20175;-66
2021/06/24 05:59:07;;;;;;;10.57;2.72;;;15.90;99.90;;;;;;5063605;28;20178;-65
2021/06/24 06:01:33;;;;;;;5.88;2.40;;;16.00;99.90;;;;;;5064063;28;20179;-63
2021/06/24 06:03:59;;;;;;;8.75;2.30;;;16.10;99.90;;;;;;5059269;28;20218;-65
2021/06/24 06:06:26;;;;;;;7.40;2.25;;;16.10;99.90;;;;;;5061449;28;20177;-62
2021/06/24 06:08:52;;;;;;;9.55;2.60;;;16.30;99.90;;;;;;5063623;28;20162;-64
2021/06/24 06:11:18;;;;;;;7.45;2.60;;;16.50;99.90;;;;;;5044371;28;20537;-63
2021/06/24 06:13:44;;;;;;;10.23;2.47;;;16.40;99.90;;;;;;5063269;28;20193;-64
2021/06/24 06:16:10;;;;;;;8.35;2.22;;;16.50;99.90;;;;;;5061484;28;20182;-63
2021/06/24 06:18:37;;;;;;;14.98;3.13;;;16.60;99.90;;;;;;5063589;28;20175;-62
2021/06/24 06:21:03;;;;;;;9.70;3.25;;;16.70;99.90;;;;;;5064313;28;20193;-59
2021/06/24 06:23:29;;;;;;;5.45;2.10;;;16.80;99.90;;;;;;5062277;28;20222;-63
2021/06/24 06:25:55;;;;;;;10.68;2.75;;;16.80;99.90;;;;;;5064779;28;20178;-63
2021/06/24 06:28:22;;;;;;;6.95;2.60;;;16.80;99.90;;;;;;5049505;28;20174;-63
2021/06/24 06:30:49;;;;;;;8.23;2.33;;;16.70;99.90;;;;;;5069660;28;20173;-65
2021/06/24 06:33:16;;;;;;;10.07;2.92;;;16.60;99.90;;;;;;5068320;28;20186;-65
2021/06/24 06:35:42;;;;;;;12.15;2.92;;;16.70;99.90;;;;;;5066561;28;20654;-64
2021/06/24 06:38:08;;;;;;;10.07;3.20;;;16.70;99.90;;;;;;5069450;28;20186;-64
2021/06/24 06:40:35;;;;;;;4.60;2.10;;;16.70;99.90;;;;;;5065759;28;20181;-65
2021/06/24 06:43:01;;;;;;;9.50;2.53;;;16.70;99.90;;;;;;5068924;28;20188;-63
2021/06/24 06:45:28;;;;;;;7.05;2.17;;;16.70;99.90;;;;;;5065341;28;20181;-65
2021/06/24 06:47:54;;;;;;;11.48;2.60;;;16.70;99.90;;;;;;5064677;28;20170;-65
2021/06/24 06:50:20;;;;;;;6.22;2.67;;;16.80;99.90;;;;;;5066389;28;20213;-64
2021/06/24 06:52:47;;;;;;;8.68;2.90;;;17.00;99.90;;;;;;5064783;28;20542;-64
2021/06/24 06:55:13;;;;;;;9.63;2.80;;;17.00;99.90;;;;;;5064142;28;20186;-64
2021/06/24 06:57:39;;;;;;;10.93;3.10;;;17.10;99.90;;;;;;5049317;28;20182;-65
2021/06/24 07:00:08;;;;;;;11.23;3.00;;;17.20;99.90;;;;;;5050135;28;20182;-64
2021/06/24 07:02:34;;;;;;;9.10;2.90;;;17.20;99.90;;;;;;5068536;28;20184;-65
2021/06/24 07:05:00;;;;;;;5.25;2.92;;;17.30;99.90;;;;;;5055126;28;20221;-63
2021/06/24 07:07:26;;;;;;;9.75;3.38;;;17.40;99.90;;;;;;5069256;28;20193;-64
2021/06/24 07:09:53;;;;;;;12.93;4.13;;;17.40;99.90;;;;;;5063090;28;20174;-67
2021/06/24 07:12:20;;;;;;;11.55;4.18;;;17.40;99.90;;;;;;5065501;28;20561;-65
2021/06/24 07:14:47;;;;;;;7.70;3.40;;;17.40;99.90;;;;;;5064619;28;20190;-65
2021/06/24 07:17:13;;;;;;;8.20;3.38;;;17.40;99.90;;;;;;5064540;28;20190;-65
2021/06/24 07:19:39;;;;;;;14.73;4.10;;;17.50;99.90;;;;;;5063534;28;20182;-64
2021/06/24 07:22:06;;;;;;;10.68;3.97;;;17.70;99.90;;;;;;5070972;28;20198;-64
2021/06/24 07:24:32;;;;;;;12.20;4.68;;;17.70;99.90;;;;;;5056328;28;20291;-64
2021/06/24 07:26:58;;;;;;;15.43;4.20;;;17.80;99.90;;;;;;5056970;28;20169;-65
2021/06/24 07:29:24;;;;;;;10.18;3.80;;;17.70;99.90;;;;;;5072960;28;20177;-64
2021/06/24 07:31:50;;;;;;;9.23;3.85;;;17.80;99.90;;;;;;5074845;28;20182;-64
2021/06/24 07:34:16;;;;;;;13.75;4.18;;;17.90;99.90;;;;;;5074618;28;20178;-63
2021/06/24 07:36:42;;;;;;;10.98;4.47;;;18.00;99.90;;;;;;5074689;28;20222;-65
2021/06/24 07:39:08;;;;;;;13.63;4.03;;;18.20;99.90;;;;;;5074333;28;20181;-63
2021/06/24 07:41:34;;;;;;;12.32;4.43;;;18.00;98.50;;;;;;5074472;28;20549;-64
2021/06/24 07:44:00;;;;;;;9.10;4.25;;;18.10;98.70;;;;;;5074700;28;20206;-63
2021/06/24 07:46:27;;;;;;;8.95;3.75;;;18.10;99.90;;;;;;5068553;28;20542;-65
2021/06/24 07:48:53;;;;;;;9.77;4.05;;;18.30;99.00;;;;;;5054872;28;20167;-64
2021/06/24 07:51:19;;;;;;;13.25;4.05;;;18.30;99.90;;;;;;5065401;28;20169;-63
2021/06/24 07:53:45;;;;;;;12.00;4.28;;;18.30;99.90;;;;;;5056759;28;20169;-62
2021/06/24 07:56:14;;;;;;;11.13;4.20;;;18.40;99.90;;;;;;5073844;28;20179;-64
2021/06/24 07:58:40;;;;;;;11.45;4.15;;;18.40;99.90;;;;;;5069647;28;20623;-64
2021/06/24 08:01:07;;;;;;;9.70;3.90;;;18.40;99.40;;;;;;5044511;28;20184;-64
2021/06/24 08:03:34;;;;;;;16.75;4.38;;;18.50;99.90;;;;;;5052106;28;20209;-64
2021/06/24 08:06:01;;;;;;;13.85;4.05;;;18.70;99.30;;;;;;5072280;28;20178;-62
2021/06/24 08:08:27;;;;;;;8.88;4.45;;;18.70;99.00;;;;;;5073427;28;20166;-63
2021/06/24 08:10:55;;;;;;;7.65;4.72;;;18.80;98.50;;;;;;5073852;28;20181;-64
2021/06/24 08:13:21;;;;;;;15.82;4.45;;;19.00;98.80;;;;;;5072297;28;20170;-64
2021/06/24 08:15:47;;;;;;;15.73;4.13;;;19.10;98.70;;;;;;5072366;28;20535;-63
2021/06/24 08:18:15;;;;;;;9.50;4.35;;;19.20;97.20;;;;;;5073525;28;20170;-63
2021/06/24 08:20:41;;;;;;;11.45;3.75;;;19.40;97.20;;;;;;5073942;28;20216;-63
2021/06/24 08:23:08;;;;;;;9.13;4.55;;;19.40;95.20;;;;;;5073693;28;20534;-63
2021/06/24 08:25:34;;;;;;;12.10;4.35;;;19.60;96.90;;;;;;5071651;28;20212;-64
2021/06/24 08:28:00;;;;;;;10.15;4.20;;;19.70;96.30;;;;;;5073310;28;20194;-63
2021/06/24 08:30:26;;;;;;;;;;;19.70;96.90;;;;;;5068427;28;20478;-62
2021/06/24 08:32:52;;;;;;;;;;;20.10;97.90;;;;;;5074042;28;19915;-63
2021/06/24 08:35:18;;;;;;;8.38;4.03;;;20.00;96.50;;;;;;5073048;28;20187;-63
2021/06/24 08:37:44;;;;;;;;;;;20.20;97.50;;;;;;5073596;28;20071;-64
2021/06/24 08:40:10;;;;;;;;;;;20.60;96.00;;;;;;5073698;28;19916;-64
2021/06/24 08:42:36;;;;;;;;;;;20.70;95.60;;;;;;5073650;28;19916;-63
2021/06/24 08:45:03;;;;;;;;;;;21.10;94.40;;;;;;5073650;28;19921;-64
2021/06/24 08:47:30;;;;;;;;;;;21.80;92.50;;;;;;5071854;28;19912;-64
2021/06/24 08:49:57;;;;;;;;;;;21.90;90.90;;;;;;5055687;28;19916;-64
2021/06/24 08:52:23;;;;;;;;;;;22.60;88.50;;;;;;5073364;28;19928;-63
2021/06/24 08:54:49;;;;;;;;;;;23.00;86.10;;;;;;5072836;28;19912;-65
2021/06/24 08:57:15;;;;;;;;;;;22.80;83.60;;;;;;5037788;28;19916;-63
2021/06/24 08:59:42;;;;;;;;;;;22.40;78.70;;;;;;5072519;28;19920;-62
2021/06/24 09:02:12;;;;;;;;;;;22.60;82.70;;;;;;5072775;28;19908;-64
2021/06/24 09:04:42;;;;;;;;;;;22.80;76.10;;;;;;5073088;28;19920;-62
2021/06/24 09:07:11;;;;;;;;;;;23.00;69.60;;;;;;5072375;28;19920;-63
2021/06/24 09:09:37;;;;;;;;;;;23.30;69.20;;;;;;5072400;28;20365;-64
2021/06/24 09:12:03;;;;;;;;;;;23.40;71.90;;;;;;5072830;28;19932;-65
2021/06/24 09:15:05;;;;;;;;;;;23.60;67.80;;;;;;5072083;28;19916;-64
2021/06/24 09:17:49;;;;;;;;;;;23.80;69.60;;;;;;5006496;28;20302;-64
2021/06/24 09:20:17;;;;;;;;;;;24.40;66.80;;;;;;5061110;28;19912;-64
2021/06/24 09:23:02;;;;;;;;;;;25.10;62.50;;;;;;5072386;28;19908;-65
2021/06/24 09:25:28;;;;;;;;;;;25.20;62.70;;;;;;5072237;28;19923;-63
2021/06/24 09:27:54;;;;;;;;;;;24.70;62.20;;;;;;5071928;28;19920;-64
2021/06/24 09:30:26;;;;;;;;;;;25.00;63.90;;;;;;5069688;28;19916;-63
2021/06/24 09:32:52;;;;;;;;;;;25.20;54.60;;;;;;5055260;28;19915;-66
2021/06/24 09:35:22;;;;;;;;;;;25.10;58.20;;;;;;5072957;28;19920;-66
2021/06/24 09:38:01;;;;;;;;;;;25.30;59.00;;;;;;5072502;28;20280;-63
2021/06/24 09:40:36;;;;;;;;;;;24.90;63.10;;;;;;5053934;28;19931;-65
2021/06/24 09:43:02;;;;;;;11.38;3.83;;;24.70;65.00;;;;;;5072338;28;20191;-64
2021/06/24 09:45:28;;;;;;;10.57;3.88;;;24.20;67.50;;;;;;5069773;28;20670;-65
2021/06/24 09:48:15;;;;;;;8.90;3.83;;;23.60;70.20;;;;;;5070240;28;20197;-65
2021/06/24 09:50:41;;;;;;;;;;;23.20;71.50;;;;;;5070429;28;20052;-64
2021/06/24 09:53:11;;;;;;;;;;;23.00;70.10;;;;;;5071542;28;20285;-64
2021/06/24 09:55:37;;;;;;;;;;;22.60;68.20;;;;;;5032206;28;19916;-64
2021/06/24 09:58:13;;;;;;;;;;;22.40;68.70;;;;;;5069397;28;19931;-65
2021/06/24 10:00:48;;;;;;;;;;;22.50;70.80;;;;;;5064332;28;20254;-63
2021/06/24 10:03:14;;;;;;;;;;;22.70;71.20;;;;;;5070387;28;19915;-65
2021/06/24 10:05:40;;;;;;;;;;;22.80;67.50;;;;;;5071670;28;19929;-64
2021/06/24 10:08:06;;;;;;;;;;;23.30;67.70;;;;;;5071492;28;20326;-63
2021/06/24 10:10:35;;;;;;;;;;;23.50;65.40;;;;;;5071142;28;19930;-63
2021/06/24 10:13:01;;;;;;;;;;;23.60;66.60;;;;;;5071756;28;19920;-64
2021/06/24 10:15:30;;;;;;;;;;;23.80;66.50;;;;;;5071788;28;19916;-62
2021/06/24 10:17:56;;;;;;;;;;;24.20;63.40;;;;;;5071599;28;20365;-64
2021/06/24 10:20:23;;;;;;;;;;;24.10;58.80;;;;;;5071726;28;19908;-64
2021/06/24 10:22:53;;;;;;;;;;;24.40;59.90;;;;;;5070747;28;19920;-64
2021/06/24 10:25:19;;;;;;;;;;;24.00;56.50;;;;;;5051162;28;19916;-64
2021/06/24 10:27:45;;;;;;;;;;;23.80;57.30;;;;;;5052940;28;20399;-64
2021/06/24 10:30:12;;;;;;;;;;;23.30;61.40;;;;;;5052889;28;19908;-63
2021/06/24 10:32:41;;;;;;;;;;;23.60;61.70;;;;;;5071469;28;19920;-64
2021/06/24 10:35:08;;;;;;;;;;;24.30;59.50;;;;;;5053205;28;19991;-64
2021/06/24 10:37:34;;;;;;;;;;;24.50;59.10;;;;;;5053655;28;19916;-63
2021/06/24 10:40:01;;;;;;;;;;;24.70;59.30;;;;;;5071703;28;19912;-64
2021/06/24 10:42:32;;;;;;;;;;;24.40;57.60;;;;;;5071613;28;19927;-62
2021/06/24 10:44:59;;;;;;;;;;;24.10;58.10;;;;;;5070993;28;19923;-62
2021/06/24 10:47:35;;;;;;;;;;;24.40;61.10;;;;;;5071540;28;19908;-64
2021/06/24 10:50:20;;;;;;;;;;;24.20;57.80;;;;;;5053121;28;19908;-63
2021/06/24 10:52:46;;;;;;;;;;;24.10;57.10;;;;;;5069325;28;19916;-64
2021/06/24 10:55:39;;;;;;;;;;;24.30;56.90;;;;;;5070959;28;19908;-63
2021/06/24 10:58:17;;;;;;;;;;;23.10;59.10;;;;;;5066766;28;19931;-63
2021/06/24 11:00:44;;;;;;;;;;;23.20;56.60;;;;;;5069032;28;19919;-64
2021/06/24 11:03:13;;;;;;;;;;;23.10;58.60;;;;;;5071185;28;19912;-62
2021/06/24 11:05:43;;;;;;;;;;;23.30;58.60;;;;;;5071880;28;19931;-64
2021/06/24 11:08:19;;;;;;;;;;;23.60;56.10;;;;;;5036384;28;19908;-64
2021/06/24 11:11:00;;;;;;;;;;;23.60;58.20;;;;;;5072270;28;19975;-62
2021/06/24 11:13:42;;;;;;;;;;;23.70;59.40;;;;;;5056179;28;20298;-63
2021/06/24 11:16:08;;;;;;;;;;;23.00;54.40;;;;;;5074295;28;19909;-63
2021/06/24 11:18:34;;;;;;;;;;;22.90;57.90;;;;;;5073767;28;19908;-62
2021/06/24 11:21:01;;;;;;;;;;;23.30;55.40;;;;;;5073690;28;19912;-63
2021/06/24 11:23:28;;;;;;;;;;;23.20;58.00;;;;;;5073289;28;19912;-63
2021/06/24 11:26:07;;;;;;;;;;;23.00;58.90;;;;;;5073539;28;19924;-64
2021/06/24 11:28:54;;;;;;;;;;;21.90;60.60;;;;;;5073192;28;19913;-62
2021/06/24 11:31:22;;;;;;;;;;;22.00;65.00;;;;;;5052299;28;20289;-62
2021/06/24 11:36:29;;;;;;;;;;;22.20;63.60;;;;;;5078948;28;19927;-63
2021/06/24 11:38:55;;;;;;;;;;;22.40;62.90;;;;;;5074518;28;19913;-63
2021/06/24 11:41:21;;;;;;;;;;;22.50;62.50;;;;;;5074856;28;20276;-62
2021/06/24 11:43:58;;;;;;;;;;;22.30;63.70;;;;;;5074809;28;19919;-62
2021/06/24 11:46:25;;;;;;;;;;;22.70;64.50;;;;;;5074882;28;20300;-62
2021/06/24 12:05:53;;;;;;;6.55;3.92;;;22.90;59.70;;;;;;5045101;28;20213;-61
2021/06/24 12:08:22;;;;;;;;;;;23.30;59.80;;;;;;5056554;28;20044;-62
2021/06/24 12:10:49;;;;;;;;;;;21.90;59.80;;;;;;5074030;28;20392;-61
2021/06/24 12:13:30;;;;;;;;;;;21.70;61.90;;;;;;5073441;28;19920;-63
2021/06/24 12:15:56;;;;;;;;;;;21.40;64.90;;;;;;5074413;28;19920;-59
2021/06/24 12:18:35;;;;;;;;;;;20.80;67.70;;;;;;5074373;28;20419;-64
2021/06/24 12:21:02;;;;;;;;;;;21.00;68.20;;;;;;5073238;28;20288;-63
2021/06/24 12:23:28;;;;;;;;;;;20.90;68.20;;;;;;5071646;28;19920;-62
2021/06/24 12:25:54;;;;;;;;;;;21.10;67.90;;;;;;5072100;28;19920;-64
2021/06/24 12:28:19;;;;;;;;;;;21.20;66.80;;;;;;5073805;28;19912;-63
2021/06/24 12:30:49;;;;;;;;;;;21.30;70.50;;;;;;5039304;28;19909;-63
2021/06/24 12:33:15;;;;;;;;;;;20.70;68.30;;;;;;5073780;28;19913;-62
2021/06/24 12:35:42;;;;;;;;;;;20.80;70.00;;;;;;5072707;28;19916;-63
2021/06/24 12:38:16;;;;;;;;;;;21.00;65.10;;;;;;5073173;28;19917;-63
2021/06/24 12:40:43;;;;;;;;;;;20.70;68.00;;;;;;5055257;28;20296;-63
2021/06/24 12:43:09;;;;;;;;;;;21.00;68.20;;;;;;5054707;28;19909;-62
2021/06/24 12:45:39;;;;;;;;;;;21.10;65.80;;;;;;5071904;28;19930;-61
2021/06/24 12:48:05;;;;;;;;;;;21.10;65.00;;;;;;5053663;28;20304;-60
2021/06/24 12:50:32;;;;;;;;;;;21.20;61.00;;;;;;5072970;28;19920;-60
2021/06/24 12:53:01;;;;;;;;;;;21.40;64.80;;;;;;5070622;28;19912;-61
2021/06/24 12:55:40;;;;;;;;;;;21.60;60.90;;;;;;5052425;28;19909;-62
2021/06/24 12:58:35;;;;;;;;;;;21.40;62.00;;;;;;5070304;28;20230;-61
2021/06/24 13:01:14;;;;;;;;;;;21.60;63.30;;;;;;5055214;28;19913;-62
2021/06/24 13:03:53;;;;;;;;;;;21.00;60.10;;;;;;5072968;28;19909;-63
2021/06/24 13:06:46;;;;;;;;;;;21.00;57.00;;;;;;5053926;28;19927;-61
2021/06/24 13:09:13;;;;;;;;;;;21.10;62.60;;;;;;5069757;28;19908;-64
2021/06/24 13:11:40;;;;;;;;;;;20.90;63.00;;;;;;5072722;28;19912;-64
2021/06/24 13:14:06;;;;;;;;;;;20.70;60.40;;;;;;5072609;28;20312;-63
2021/06/24 13:16:35;;;;;;;;;;;20.90;62.20;;;;;;5071840;28;19912;-59
2021/06/24 13:19:02;;;;;;;;;;;20.90;62.80;;;;;;5068424;28;19915;-63
2021/06/24 13:21:28;;;;;;;;;;;21.00;65.60;;;;;;5072898;28;20376;-63
2021/06/24 13:24:07;;;;;;;;;;;21.30;67.30;;;;;;5072867;28;19908;-60
2021/06/24 13:26:33;;;;;;;;;;;21.40;66.40;;;;;;5072013;28;19924;-62
2021/06/24 13:28:59;;;;;;;;;;;21.40;64.40;;;;;;5072038;28;19919;-63
2021/06/24 13:31:31;;;;;;;;;;;21.20;64.00;;;;;;5072656;28;19951;-63